sensor_id;sensor_type;location;lat;lon;timestamp;temperature;humidity
981;DHT22;479;53.514;9.994;2023-03-21T00:02:02;8.50;99.90
981;DHT22;479;53.514;9.994;2023-03-21T00:04:30;8.40;99.90
981;DHT22;479;53.514;9.994;2023-03-21T00:06:57;8.40;99.90
981;DHT22;479;53.514;9.994;2023-03-21T00:09:24;8.40;99.90
981;DHT22;479;53.514;9.994;2023-03-21T00:11:52;8.40;99.90
981;DHT22;479;53.514;9.994;2023-03-21T00:14:20;8.40;99.90
981;DHT22;479;53.514;9.994;2023-03-21T00:16:48;8.40;99.90
981;DHT22;479;53.514;9.994;2023-03-21T00:19:19;8.40;99.90
981;DHT22;479;53.514;9.994;2023-03-21T00:21:49;8.40;99.90
981;DHT22;479;53.514;9.994;2023-03-21T00:24:19;8.50;99.90
981;DHT22;479;53.514;9.994;2023-03-21T00:26:49;8.40;99.90
981;DHT22;479;53.514;9.994;2023-03-21T00:29:16;8.40;99.90
981;DHT22;479;53.514;9.994;2023-03-21T00:31:45;8.40;99.90
981;DHT22;479;53.514;9.994;2023-03-21T00:34:13;8.50;99.90
981;DHT22;479;53.514;9.994;2023-03-21T00:36:40;8.50;99.90
981;DHT22;479;53.514;9.994;2023-03-21T00:39:08;8.50;99.90
981;DHT22;479;53.514;9.994;2023-03-21T00:41:36;8.60;99.90
981;DHT22;479;53.514;9.994;2023-03-21T00:44:03;8.50;99.90
981;DHT22;479;53.514;9.994;2023-03-21T00:46:30;8.60;99.90
981;DHT22;479;53.514;9.994;2023-03-21T00:48:57;8.60;99.90
981;DHT22;479;53.514;9.994;2023-03-21T00:51:26;8.60;99.90
981;DHT22;479;53.514;9.994;2023-03-21T00:53:55;8.60;99.90
981;DHT22;479;53.514;9.994;2023-03-21T00:56:27;8.60;99.90
981;DHT22;479;53.514;9.994;2023-03-21T00:58:54;8.50;99.90
981;DHT22;479;53.514;9.994;2023-03-21T01:01:22;8.50;99.90
981;DHT22;479;53.514;9.994;2023-03-21T01:03:51;8.50;99.90
981;DHT22;479;53.514;9.994;2023-03-21T01:06:30;8.50;99.90
981;DHT22;479;53.514;9.994;2023-03-21T01:08:58;8.50;99.90
981;DHT22;479;53.514;9.994;2023-03-21T01:11:27;8.50;99.90
981;DHT22;479;53.514;9.994;2023-03-21T01:13:54;8.50;99.90
981;DHT22;479;53.514;9.994;2023-03-21T01:16:22;8.50;99.90
981;DHT22;479;53.514;9.994;2023-03-21T01:18:53;8.50;99.90
981;DHT22;479;53.514;9.994;2023-03-21T01:21:22;8.40;99.90
981;DHT22;479;53.514;9.994;2023-03-21T01:23:49;8.40;99.90
981;DHT22;479;53.514;9.994;2023-03-21T01:26:18;8.50;99.90
981;DHT22;479;53.514;9.994;2023-03-21T01:28:46;8.50;99.90
981;DHT22;479;53.514;9.994;2023-03-21T01:31:15;8.50;99.90
981;DHT22;479;53.514;9.994;2023-03-21T01:33:43;8.50;99.90
981;DHT22;479;53.514;9.994;2023-03-21T01:36:14;8.50;99.90
981;DHT22;479;53.514;9.994;2023-03-21T01:38:42;8.40;99.90
981;DHT22;479;53.514;9.994;2023-03-21T01:41:17;8.50;99.90
981;DHT22;479;53.514;9.994;2023-03-21T01:43:47;8.50;99.90
981;DHT22;479;53.514;9.994;2023-03-21T01:46:36;8.60;99.90
981;DHT22;479;53.514;9.994;2023-03-21T01:49:37;8.50;99.90
981;DHT22;479;53.514;9.994;2023-03-21T01:52:28;8.50;99.90
981;DHT22;479;53.514;9.994;2023-03-21T01:54:57;8.50;99.90
981;DHT22;479;53.514;9.994;2023-03-21T01:57:29;8.50;99.90
981;DHT22;479;53.514;9.994;2023-03-21T02:00:03;8.50;99.90
981;DHT22;479;53.514;9.994;2023-03-21T02:02:52;8.50;99.90
981;DHT22;479;53.514;9.994;2023-03-21T02:05:50;8.50;99.90
981;DHT22;479;53.514;9.994;2023-03-21T02:08:18;8.50;99.90
981;DHT22;479;53.514;9.994;2023-03-21T02:10:47;8.50;99.90
981;DHT22;479;53.514;9.994;2023-03-21T02:13:23;8.50;99.90
981;DHT22;479;53.514;9.994;2023-03-21T02:15:57;8.50;99.90
981;DHT22;479;53.514;9.994;2023-03-21T02:18:37;8.50;99.90
981;DHT22;479;53.514;9.994;2023-03-21T02:27:40;8.60;99.90
981;DHT22;479;53.514;9.994;2023-03-21T02:30:43;8.60;99.90
981;DHT22;479;53.514;9.994;2023-03-21T02:33:38;8.60;99.90
981;DHT22;479;53.514;9.994;2023-03-21T02:36:17;8.60;99.90
981;DHT22;479;53.514;9.994;2023-03-21T02:38:53;8.60;99.90
981;DHT22;479;53.514;9.994;2023-03-21T02:41:24;8.60;99.90
981;DHT22;479;53.514;9.994;2023-03-21T02:43:57;8.50;99.90
981;DHT22;479;53.514;9.994;2023-03-21T02:46:29;8.60;99.90
981;DHT22;479;53.514;9.994;2023-03-21T02:49:02;8.60;99.90
981;DHT22;479;53.514;9.994;2023-03-21T02:51:34;8.70;99.90
981;DHT22;479;53.514;9.994;2023-03-21T02:54:08;8.60;99.90
981;DHT22;479;53.514;9.994;2023-03-21T02:56:36;8.60;99.90
981;DHT22;479;53.514;9.994;2023-03-21T02:59:05;8.70;99.90
981;DHT22;479;53.514;9.994;2023-03-21T03:01:34;8.70;99.90
981;DHT22;479;53.514;9.994;2023-03-21T03:04:01;8.70;99.90
981;DHT22;479;53.514;9.994;2023-03-21T03:06:35;8.70;99.90
981;DHT22;479;53.514;9.994;2023-03-21T03:09:19;8.70;99.90
981;DHT22;479;53.514;9.994;2023-03-21T03:11:50;8.70;99.90
981;DHT22;479;53.514;9.994;2023-03-21T03:14:40;8.80;99.90
981;DHT22;479;53.514;9.994;2023-03-21T03:17:21;8.80;99.90
981;DHT22;479;53.514;9.994;2023-03-21T03:20:02;8.80;99.90
981;DHT22;479;53.514;9.994;2023-03-21T03:22:38;8.80;99.90
981;DHT22;479;53.514;9.994;2023-03-21T03:25:12;8.90;99.90
981;DHT22;479;53.514;9.994;2023-03-21T03:27:41;8.90;99.90
981;DHT22;479;53.514;9.994;2023-03-21T03:30:10;8.80;99.90
981;DHT22;479;53.514;9.994;2023-03-21T03:32:43;8.80;99.90
981;DHT22;479;53.514;9.994;2023-03-21T03:35:14;8.80;99.90
981;DHT22;479;53.514;9.994;2023-03-21T03:37:44;8.80;99.90
981;DHT22;479;53.514;9.994;2023-03-21T03:40:19;8.80;99.90
981;DHT22;479;53.514;9.994;2023-03-21T03:43:01;8.80;99.90
981;DHT22;479;53.514;9.994;2023-03-21T03:45:36;8.80;99.90
981;DHT22;479;53.514;9.994;2023-03-21T03:48:07;8.80;99.90
981;DHT22;479;53.514;9.994;2023-03-21T03:50:41;8.80;99.90
981;DHT22;479;53.514;9.994;2023-03-21T03:53:18;8.80;99.90
981;DHT22;479;53.514;9.994;2023-03-21T03:55:52;8.80;99.90
981;DHT22;479;53.514;9.994;2023-03-21T03:58:22;8.80;99.90
981;DHT22;479;53.514;9.994;2023-03-21T04:00:50;8.80;99.90
981;DHT22;479;53.514;9.994;2023-03-21T04:03:17;8.80;99.90
981;DHT22;479;53.514;9.994;2023-03-21T04:05:44;8.80;99.90
981;DHT22;479;53.514;9.994;2023-03-21T04:08:13;8.80;99.90
981;DHT22;479;53.514;9.994;2023-03-21T04:10:43;8.90;99.90
981;DHT22;479;53.514;9.994;2023-03-21T04:13:11;8.90;99.90
981;DHT22;479;53.514;9.994;2023-03-21T04:15:44;8.90;99.90
981;DHT22;479;53.514;9.994;2023-03-21T04:18:14;8.80;99.90
981;DHT22;479;53.514;9.994;2023-03-21T04:20:42;8.80;99.90
981;DHT22;479;53.514;9.994;2023-03-21T04:23:10;8.80;99.90
981;DHT22;479;53.514;9.994;2023-03-21T04:25:42;8.80;99.90
981;DHT22;479;53.514;9.994;2023-03-21T04:28:11;8.80;99.90
981;DHT22;479;53.514;9.994;2023-03-21T04:30:43;8.80;99.90
981;DHT22;479;53.514;9.994;2023-03-21T04:33:13;8.80;99.90
981;DHT22;479;53.514;9.994;2023-03-21T04:35:48;8.80;99.90
981;DHT22;479;53.514;9.994;2023-03-21T04:38:16;8.80;99.90
981;DHT22;479;53.514;9.994;2023-03-21T04:40:43;8.80;99.90
981;DHT22;479;53.514;9.994;2023-03-21T04:43:11;8.90;99.90
981;DHT22;479;53.514;9.994;2023-03-21T04:45:39;8.90;99.90
981;DHT22;479;53.514;9.994;2023-03-21T04:48:07;8.90;99.90
981;DHT22;479;53.514;9.994;2023-03-21T04:50:34;9.00;99.90
981;DHT22;479;53.514;9.994;2023-03-21T04:53:01;9.00;99.90
981;DHT22;479;53.514;9.994;2023-03-21T04:55:28;8.90;99.90
981;DHT22;479;53.514;9.994;2023-03-21T04:57:56;8.90;99.90
981;DHT22;479;53.514;9.994;2023-03-21T05:00:24;8.90;99.90
981;DHT22;479;53.514;9.994;2023-03-21T05:02:51;8.90;99.90
981;DHT22;479;53.514;9.994;2023-03-21T05:05:20;8.80;99.90
981;DHT22;479;53.514;9.994;2023-03-21T05:07:47;8.80;99.90
981;DHT22;479;53.514;9.994;2023-03-21T05:10:14;8.80;99.90
981;DHT22;479;53.514;9.994;2023-03-21T05:12:41;8.80;99.90
981;DHT22;479;53.514;9.994;2023-03-21T05:15:08;8.80;99.90
981;DHT22;479;53.514;9.994;2023-03-21T05:17:37;8.80;99.90
981;DHT22;479;53.514;9.994;2023-03-21T05:20:09;8.80;99.90
981;DHT22;479;53.514;9.994;2023-03-21T05:22:36;8.80;99.90
981;DHT22;479;53.514;9.994;2023-03-21T05:25:09;8.80;99.90
981;DHT22;479;53.514;9.994;2023-03-21T05:27:53;8.80;99.90
981;DHT22;479;53.514;9.994;2023-03-21T05:30:25;8.80;99.90
981;DHT22;479;53.514;9.994;2023-03-21T05:32:58;8.80;99.90
981;DHT22;479;53.514;9.994;2023-03-21T05:35:25;8.80;99.90
981;DHT22;479;53.514;9.994;2023-03-21T05:37:53;8.80;99.90
981;DHT22;479;53.514;9.994;2023-03-21T05:40:22;8.80;99.90
981;DHT22;479;53.514;9.994;2023-03-21T05:42:49;8.80;99.90
981;DHT22;479;53.514;9.994;2023-03-21T05:45:21;8.80;99.90
981;DHT22;479;53.514;9.994;2023-03-21T05:47:49;8.90;99.90
981;DHT22;479;53.514;9.994;2023-03-21T05:50:18;8.90;99.90
981;DHT22;479;53.514;9.994;2023-03-21T05:52:54;8.90;99.90
981;DHT22;479;53.514;9.994;2023-03-21T05:55:21;8.90;99.90
981;DHT22;479;53.514;9.994;2023-03-21T05:57:48;8.90;99.90
981;DHT22;479;53.514;9.994;2023-03-21T06:00:20;8.90;99.90
981;DHT22;479;53.514;9.994;2023-03-21T06:03:06;8.90;99.90
981;DHT22;479;53.514;9.994;2023-03-21T06:05:53;8.90;99.90
981;DHT22;479;53.514;9.994;2023-03-21T06:08:24;8.90;99.90
981;DHT22;479;53.514;9.994;2023-03-21T06:10:51;8.90;99.90
981;DHT22;479;53.514;9.994;2023-03-21T06:13:20;8.90;99.90
981;DHT22;479;53.514;9.994;2023-03-21T06:15:47;8.90;99.90
981;DHT22;479;53.514;9.994;2023-03-21T06:18:18;9.00;99.90
981;DHT22;479;53.514;9.994;2023-03-21T06:20:55;8.90;99.90
981;DHT22;479;53.514;9.994;2023-03-21T06:23:22;8.90;99.90
981;DHT22;479;53.514;9.994;2023-03-21T06:25:49;9.00;99.90
981;DHT22;479;53.514;9.994;2023-03-21T06:28:16;9.00;99.90
981;DHT22;479;53.514;9.994;2023-03-21T06:30:43;9.00;99.90
981;DHT22;479;53.514;9.994;2023-03-21T06:33:20;9.10;99.90
981;DHT22;479;53.514;9.994;2023-03-21T06:35:50;9.10;99.90
981;DHT22;479;53.514;9.994;2023-03-21T06:38:19;9.00;99.90
981;DHT22;479;53.514;9.994;2023-03-21T06:40:47;9.00;99.90
981;DHT22;479;53.514;9.994;2023-03-21T06:43:15;9.10;99.90
981;DHT22;479;53.514;9.994;2023-03-21T06:45:43;9.10;99.90
981;DHT22;479;53.514;9.994;2023-03-21T06:48:11;9.10;99.90
981;DHT22;479;53.514;9.994;2023-03-21T06:50:47;9.20;99.90
981;DHT22;479;53.514;9.994;2023-03-21T06:53:15;9.10;99.90
981;DHT22;479;53.514;9.994;2023-03-21T06:56:02;9.10;99.90
981;DHT22;479;53.514;9.994;2023-03-21T06:58:31;9.20;99.90
981;DHT22;479;53.514;9.994;2023-03-21T07:00:59;9.30;99.90
981;DHT22;479;53.514;9.994;2023-03-21T07:03:26;9.30;99.90
981;DHT22;479;53.514;9.994;2023-03-21T07:05:54;9.40;99.90
981;DHT22;479;53.514;9.994;2023-03-21T07:08:21;9.40;99.90
981;DHT22;479;53.514;9.994;2023-03-21T07:10:48;9.30;99.90
981;DHT22;479;53.514;9.994;2023-03-21T07:13:17;9.40;99.90
981;DHT22;479;53.514;9.994;2023-03-21T07:15:51;9.40;99.90
981;DHT22;479;53.514;9.994;2023-03-21T07:18:19;9.50;99.90
981;DHT22;479;53.514;9.994;2023-03-21T07:20:46;9.50;99.90
981;DHT22;479;53.514;9.994;2023-03-21T07:23:16;9.50;99.90
981;DHT22;479;53.514;9.994;2023-03-21T07:25:43;9.50;99.90
981;DHT22;479;53.514;9.994;2023-03-21T07:28:11;9.50;99.90
981;DHT22;479;53.514;9.994;2023-03-21T07:30:39;9.50;99.90
981;DHT22;479;53.514;9.994;2023-03-21T07:33:07;9.60;99.90
981;DHT22;479;53.514;9.994;2023-03-21T07:35:34;9.60;99.90
981;DHT22;479;53.514;9.994;2023-03-21T07:38:02;9.60;99.90
981;DHT22;479;53.514;9.994;2023-03-21T07:40:29;9.60;99.90
981;DHT22;479;53.514;9.994;2023-03-21T07:42:56;9.70;99.90
981;DHT22;479;53.514;9.994;2023-03-21T07:45:32;9.70;99.90
981;DHT22;479;53.514;9.994;2023-03-21T07:48:01;9.70;99.90
981;DHT22;479;53.514;9.994;2023-03-21T07:50:32;9.70;99.90
981;DHT22;479;53.514;9.994;2023-03-21T07:52:59;9.70;99.90
981;DHT22;479;53.514;9.994;2023-03-21T07:55:27;9.70;99.90
981;DHT22;479;53.514;9.994;2023-03-21T07:57:54;9.70;99.90
981;DHT22;479;53.514;9.994;2023-03-21T08:00:21;9.60;99.90
981;DHT22;479;53.514;9.994;2023-03-21T08:02:49;9.70;99.90
981;DHT22;479;53.514;9.994;2023-03-21T08:05:21;9.70;99.90
981;DHT22;479;53.514;9.994;2023-03-21T08:07:48;9.70;99.90
981;DHT22;479;53.514;9.994;2023-03-21T08:10:16;9.70;99.90
981;DHT22;479;53.514;9.994;2023-03-21T08:12:44;9.70;99.90
981;DHT22;479;53.514;9.994;2023-03-21T08:15:11;9.70;99.90
981;DHT22;479;53.514;9.994;2023-03-21T08:17:39;9.70;99.90
981;DHT22;479;53.514;9.994;2023-03-21T08:20:09;9.80;99.90
981;DHT22;479;53.514;9.994;2023-03-21T08:22:38;9.80;99.90
981;DHT22;479;53.514;9.994;2023-03-21T08:25:07;9.90;99.90
981;DHT22;479;53.514;9.994;2023-03-21T08:27:37;10.00;99.90
981;DHT22;479;53.514;9.994;2023-03-21T08:30:06;10.00;99.90
981;DHT22;479;53.514;9.994;2023-03-21T08:32:33;10.00;99.90
981;DHT22;479;53.514;9.994;2023-03-21T08:35:00;10.10;99.90
981;DHT22;479;53.514;9.994;2023-03-21T08:37:28;10.00;99.90
981;DHT22;479;53.514;9.994;2023-03-21T08:39:57;10.00;99.90
981;DHT22;479;53.514;9.994;2023-03-21T08:42:24;10.00;99.90
981;DHT22;479;53.514;9.994;2023-03-21T08:44:51;10.00;99.90
981;DHT22;479;53.514;9.994;2023-03-21T08:47:17;10.10;99.90
981;DHT22;479;53.514;9.994;2023-03-21T08:49:44;10.10;99.90
981;DHT22;479;53.514;9.994;2023-03-21T08:52:11;10.10;99.90
981;DHT22;479;53.514;9.994;2023-03-21T08:54:38;10.00;99.90
981;DHT22;479;53.514;9.994;2023-03-21T08:57:07;10.10;99.90
981;DHT22;479;53.514;9.994;2023-03-21T08:59:36;10.00;99.90
981;DHT22;479;53.514;9.994;2023-03-21T09:02:03;10.00;99.90
981;DHT22;479;53.514;9.994;2023-03-21T09:04:30;10.00;99.90
981;DHT22;479;53.514;9.994;2023-03-21T09:06:57;10.10;99.90
981;DHT22;479;53.514;9.994;2023-03-21T09:09:26;10.10;99.90
981;DHT22;479;53.514;9.994;2023-03-21T09:11:53;10.20;99.90
981;DHT22;479;53.514;9.994;2023-03-21T09:14:22;10.20;99.90
981;DHT22;479;53.514;9.994;2023-03-21T09:16:49;10.30;99.90
981;DHT22;479;53.514;9.994;2023-03-21T09:19:16;10.20;99.90
981;DHT22;479;53.514;9.994;2023-03-21T09:21:43;10.30;99.90
981;DHT22;479;53.514;9.994;2023-03-21T09:24:11;10.30;99.90
981;DHT22;479;53.514;9.994;2023-03-21T09:26:40;10.30;99.90
981;DHT22;479;53.514;9.994;2023-03-21T09:29:08;10.40;99.90
981;DHT22;479;53.514;9.994;2023-03-21T09:31:37;10.40;99.90
981;DHT22;479;53.514;9.994;2023-03-21T09:34:04;10.40;99.90
981;DHT22;479;53.514;9.994;2023-03-21T09:36:31;10.50;99.90
981;DHT22;479;53.514;9.994;2023-03-21T09:39:00;10.50;99.90
981;DHT22;479;53.514;9.994;2023-03-21T09:41:40;10.50;99.90
981;DHT22;479;53.514;9.994;2023-03-21T09:44:30;10.60;99.90
981;DHT22;479;53.514;9.994;2023-03-21T09:47:09;10.60;99.90
981;DHT22;479;53.514;9.994;2023-03-21T09:49:41;10.60;99.90
981;DHT22;479;53.514;9.994;2023-03-21T09:52:14;10.60;99.90
981;DHT22;479;53.514;9.994;2023-03-21T09:54:43;10.60;99.90
981;DHT22;479;53.514;9.994;2023-03-21T09:57:18;10.60;99.90
981;DHT22;479;53.514;9.994;2023-03-21T09:59:50;10.60;99.90
981;DHT22;479;53.514;9.994;2023-03-21T10:02:34;10.60;99.90
981;DHT22;479;53.514;9.994;2023-03-21T10:05:09;10.60;99.90
981;DHT22;479;53.514;9.994;2023-03-21T10:07:40;10.60;99.90
981;DHT22;479;53.514;9.994;2023-03-21T10:10:14;10.60;99.90
981;DHT22;479;53.514;9.994;2023-03-21T10:12:43;10.50;99.90
981;DHT22;479;53.514;9.994;2023-03-21T10:15:15;10.60;99.90
981;DHT22;479;53.514;9.994;2023-03-21T10:17:50;10.50;99.90
981;DHT22;479;53.514;9.994;2023-03-21T10:20:19;10.60;99.90
981;DHT22;479;53.514;9.994;2023-03-21T10:22:48;10.70;99.90
981;DHT22;479;53.514;9.994;2023-03-21T10:25:18;10.60;99.90
981;DHT22;479;53.514;9.994;2023-03-21T10:27:49;10.70;99.90
981;DHT22;479;53.514;9.994;2023-03-21T10:30:25;10.70;99.90
981;DHT22;479;53.514;9.994;2023-03-21T10:32:57;10.70;99.90
981;DHT22;479;53.514;9.994;2023-03-21T10:35:27;10.80;99.90
981;DHT22;479;53.514;9.994;2023-03-21T10:37:58;10.80;99.90
981;DHT22;479;53.514;9.994;2023-03-21T10:40:25;10.80;99.90
981;DHT22;479;53.514;9.994;2023-03-21T10:42:54;10.80;99.90
981;DHT22;479;53.514;9.994;2023-03-21T10:45:22;10.80;99.90
981;DHT22;479;53.514;9.994;2023-03-21T10:47:49;10.80;99.90
981;DHT22;479;53.514;9.994;2023-03-21T10:50:19;10.80;99.90
981;DHT22;479;53.514;9.994;2023-03-21T10:52:52;10.80;99.90
981;DHT22;479;53.514;9.994;2023-03-21T10:55:26;10.90;99.90
981;DHT22;479;53.514;9.994;2023-03-21T10:57:56;10.80;99.90
981;DHT22;479;53.514;9.994;2023-03-21T11:00:28;10.80;99.90
981;DHT22;479;53.514;9.994;2023-03-21T11:02:56;10.70;99.90
981;DHT22;479;53.514;9.994;2023-03-21T11:05:32;10.70;99.90
981;DHT22;479;53.514;9.994;2023-03-21T11:08:02;10.80;99.90
981;DHT22;479;53.514;9.994;2023-03-21T11:10:31;10.70;99.90
981;DHT22;479;53.514;9.994;2023-03-21T11:13:03;10.80;99.90
981;DHT22;479;53.514;9.994;2023-03-21T11:15:33;10.80;99.90
981;DHT22;479;53.514;9.994;2023-03-21T11:18:13;10.80;99.90
981;DHT22;479;53.514;9.994;2023-03-21T11:20:47;10.80;99.90
981;DHT22;479;53.514;9.994;2023-03-21T11:23:15;10.80;99.90
981;DHT22;479;53.514;9.994;2023-03-21T11:25:43;10.80;99.90
981;DHT22;479;53.514;9.994;2023-03-21T11:28:15;11.00;99.90
981;DHT22;479;53.514;9.994;2023-03-21T11:30:51;11.00;99.90
981;DHT22;479;53.514;9.994;2023-03-21T11:33:20;11.00;99.90
981;DHT22;479;53.514;9.994;2023-03-21T11:35:59;11.10;99.90
981;DHT22;479;53.514;9.994;2023-03-21T11:38:30;11.10;99.90
981;DHT22;479;53.514;9.994;2023-03-21T11:40:59;11.10;99.90
981;DHT22;479;53.514;9.994;2023-03-21T11:43:29;11.00;99.90
981;DHT22;479;53.514;9.994;2023-03-21T11:45:58;11.00;99.90
981;DHT22;479;53.514;9.994;2023-03-21T11:48:26;11.10;99.90
981;DHT22;479;53.514;9.994;2023-03-21T11:50:59;11.00;99.90
981;DHT22;479;53.514;9.994;2023-03-21T11:53:35;10.90;99.90
981;DHT22;479;53.514;9.994;2023-03-21T11:56:21;10.90;99.90
981;DHT22;479;53.514;9.994;2023-03-21T11:59:02;11.00;99.90
981;DHT22;479;53.514;9.994;2023-03-21T12:01:36;11.10;99.90
981;DHT22;479;53.514;9.994;2023-03-21T12:04:26;11.30;99.90
981;DHT22;479;53.514;9.994;2023-03-21T12:07:03;11.50;99.90
981;DHT22;479;53.514;9.994;2023-03-21T12:09:38;11.40;99.90
981;DHT22;479;53.514;9.994;2023-03-21T12:12:21;11.40;99.90
981;DHT22;479;53.514;9.994;2023-03-21T12:15:00;11.50;99.90
981;DHT22;479;53.514;9.994;2023-03-21T12:17:39;11.50;99.90
981;DHT22;479;53.514;9.994;2023-03-21T12:20:36;11.50;99.90
981;DHT22;479;53.514;9.994;2023-03-21T12:26:15;11.30;99.90
981;DHT22;479;53.514;9.994;2023-03-21T12:29:07;11.30;99.90
981;DHT22;479;53.514;9.994;2023-03-21T12:31:47;11.40;99.90
981;DHT22;479;53.514;9.994;2023-03-21T12:34:29;11.30;99.90
981;DHT22;479;53.514;9.994;2023-03-21T12:37:07;11.40;99.90
981;DHT22;479;53.514;9.994;2023-03-21T12:39:39;11.40;99.90
981;DHT22;479;53.514;9.994;2023-03-21T12:45:11;11.30;99.90
981;DHT22;479;53.514;9.994;2023-03-21T12:47:46;11.30;99.90
981;DHT22;479;53.514;9.994;2023-03-21T12:50:17;11.40;99.90
981;DHT22;479;53.514;9.994;2023-03-21T12:52:48;11.40;99.90
981;DHT22;479;53.514;9.994;2023-03-21T12:55:20;11.30;99.90
981;DHT22;479;53.514;9.994;2023-03-21T12:57:49;11.30;99.90
981;DHT22;479;53.514;9.994;2023-03-21T13:00:20;11.30;99.90
981;DHT22;479;53.514;9.994;2023-03-21T13:02:50;11.30;99.90
981;DHT22;479;53.514;9.994;2023-03-21T13:05:21;11.30;99.90
981;DHT22;479;53.514;9.994;2023-03-21T13:07:55;11.30;99.90
981;DHT22;479;53.514;9.994;2023-03-21T13:10:26;11.30;99.90
981;DHT22;479;53.514;9.994;2023-03-21T13:13:03;11.30;99.90
981;DHT22;479;53.514;9.994;2023-03-21T13:15:59;11.30;99.90
981;DHT22;479;53.514;9.994;2023-03-21T13:21:32;11.20;99.90
981;DHT22;479;53.514;9.994;2023-03-21T13:24:02;11.20;99.90
981;DHT22;479;53.514;9.994;2023-03-21T13:26:37;11.20;99.90
981;DHT22;479;53.514;9.994;2023-03-21T13:29:12;11.20;99.90
981;DHT22;479;53.514;9.994;2023-03-21T13:31:43;11.20;99.90
981;DHT22;479;53.514;9.994;2023-03-21T13:34:12;11.20;99.90
981;DHT22;479;53.514;9.994;2023-03-21T13:36:40;11.20;99.90
981;DHT22;479;53.514;9.994;2023-03-21T13:39:16;11.20;99.90
981;DHT22;479;53.514;9.994;2023-03-21T13:41:47;11.30;99.90
981;DHT22;479;53.514;9.994;2023-03-21T13:44:30;11.30;99.90
981;DHT22;479;53.514;9.994;2023-03-21T13:47:00;11.20;99.90
981;DHT22;479;53.514;9.994;2023-03-21T13:49:31;11.30;99.90
981;DHT22;479;53.514;9.994;2023-03-21T13:52:00;11.30;99.90
981;DHT22;479;53.514;9.994;2023-03-21T13:54:44;11.30;99.90
981;DHT22;479;53.514;9.994;2023-03-21T13:57:37;11.30;99.90
981;DHT22;479;53.514;9.994;2023-03-21T14:00:18;11.30;99.90
981;DHT22;479;53.514;9.994;2023-03-21T14:02:56;11.20;99.90
981;DHT22;479;53.514;9.994;2023-03-21T14:05:25;11.20;99.90
981;DHT22;479;53.514;9.994;2023-03-21T14:07:55;11.20;99.90
981;DHT22;479;53.514;9.994;2023-03-21T14:10:28;11.30;99.90
981;DHT22;479;53.514;9.994;2023-03-21T14:12:58;11.20;99.90
981;DHT22;479;53.514;9.994;2023-03-21T14:15:30;11.20;99.90
981;DHT22;479;53.514;9.994;2023-03-21T14:18:00;11.20;99.90
981;DHT22;479;53.514;9.994;2023-03-21T14:20:29;11.20;99.90
981;DHT22;479;53.514;9.994;2023-03-21T14:22:57;11.10;99.90
981;DHT22;479;53.514;9.994;2023-03-21T14:25:32;11.20;99.90
981;DHT22;479;53.514;9.994;2023-03-21T14:28:05;11.10;99.90
981;DHT22;479;53.514;9.994;2023-03-21T14:30:37;11.00;99.90
981;DHT22;479;53.514;9.994;2023-03-21T14:33:10;11.00;99.90
981;DHT22;479;53.514;9.994;2023-03-21T14:35:40;11.00;99.90
981;DHT22;479;53.514;9.994;2023-03-21T14:38:19;11.00;99.90
981;DHT22;479;53.514;9.994;2023-03-21T14:40:48;11.00;99.90
981;DHT22;479;53.514;9.994;2023-03-21T14:43:18;10.90;99.90
981;DHT22;479;53.514;9.994;2023-03-21T14:45:47;11.00;99.90
981;DHT22;479;53.514;9.994;2023-03-21T14:48:15;10.80;99.90
981;DHT22;479;53.514;9.994;2023-03-21T14:50:45;10.90;99.90
981;DHT22;479;53.514;9.994;2023-03-21T14:53:15;10.90;99.90
981;DHT22;479;53.514;9.994;2023-03-21T14:55:55;10.90;99.90
981;DHT22;479;53.514;9.994;2023-03-21T14:58:24;10.90;99.90
981;DHT22;479;53.514;9.994;2023-03-21T15:00:55;10.80;99.90
981;DHT22;479;53.514;9.994;2023-03-21T15:03:23;10.90;99.90
981;DHT22;479;53.514;9.994;2023-03-21T15:05:52;10.80;99.90
981;DHT22;479;53.514;9.994;2023-03-21T15:08:21;10.90;99.90
981;DHT22;479;53.514;9.994;2023-03-21T15:10:54;10.90;99.90
981;DHT22;479;53.514;9.994;2023-03-21T15:13:26;10.90;99.90
981;DHT22;479;53.514;9.994;2023-03-21T15:15:53;10.80;99.90
981;DHT22;479;53.514;9.994;2023-03-21T15:18:25;10.80;99.90
981;DHT22;479;53.514;9.994;2023-03-21T15:20:54;10.80;99.90
981;DHT22;479;53.514;9.994;2023-03-21T15:23:25;10.80;99.90
981;DHT22;479;53.514;9.994;2023-03-21T15:25:54;10.80;99.90
981;DHT22;479;53.514;9.994;2023-03-21T15:28:21;10.80;99.90
981;DHT22;479;53.514;9.994;2023-03-21T15:30:52;10.90;99.90
981;DHT22;479;53.514;9.994;2023-03-21T15:33:23;10.90;99.90
981;DHT22;479;53.514;9.994;2023-03-21T15:35:52;10.80;99.90
981;DHT22;479;53.514;9.994;2023-03-21T15:38:22;10.80;99.90
981;DHT22;479;53.514;9.994;2023-03-21T15:40:49;10.70;99.90
981;DHT22;479;53.514;9.994;2023-03-21T15:43:18;10.70;99.90
981;DHT22;479;53.514;9.994;2023-03-21T15:45:47;10.70;99.90
981;DHT22;479;53.514;9.994;2023-03-21T15:48:16;10.70;99.90
981;DHT22;479;53.514;9.994;2023-03-21T15:50:51;10.70;99.90
981;DHT22;479;53.514;9.994;2023-03-21T15:53:22;10.60;99.90
981;DHT22;479;53.514;9.994;2023-03-21T15:55:51;10.60;99.90
981;DHT22;479;53.514;9.994;2023-03-21T15:58:23;10.60;99.90
981;DHT22;479;53.514;9.994;2023-03-21T16:00:51;10.60;99.90
981;DHT22;479;53.514;9.994;2023-03-21T16:03:24;10.50;99.90
981;DHT22;479;53.514;9.994;2023-03-21T16:06:06;10.50;99.90
981;DHT22;479;53.514;9.994;2023-03-21T16:08:35;10.40;99.90
981;DHT22;479;53.514;9.994;2023-03-21T16:11:13;10.40;99.90
981;DHT22;479;53.514;9.994;2023-03-21T16:13:41;10.40;99.90
981;DHT22;479;53.514;9.994;2023-03-21T16:16:14;10.50;99.90
981;DHT22;479;53.514;9.994;2023-03-21T16:18:43;10.50;99.90
981;DHT22;479;53.514;9.994;2023-03-21T16:21:11;10.40;99.90
981;DHT22;479;53.514;9.994;2023-03-21T16:23:39;10.40;99.90
981;DHT22;479;53.514;9.994;2023-03-21T16:26:08;10.40;99.90
981;DHT22;479;53.514;9.994;2023-03-21T16:28:36;10.40;99.90
981;DHT22;479;53.514;9.994;2023-03-21T16:31:03;10.30;99.90
981;DHT22;479;53.514;9.994;2023-03-21T16:33:30;10.30;99.90
981;DHT22;479;53.514;9.994;2023-03-21T16:35:58;10.40;99.90
981;DHT22;479;53.514;9.994;2023-03-21T16:38:25;10.40;99.90
981;DHT22;479;53.514;9.994;2023-03-21T16:40:52;10.40;99.90
981;DHT22;479;53.514;9.994;2023-03-21T16:43:19;10.30;99.90
981;DHT22;479;53.514;9.994;2023-03-21T16:45:46;10.40;99.90
981;DHT22;479;53.514;9.994;2023-03-21T16:48:13;10.40;99.90
981;DHT22;479;53.514;9.994;2023-03-21T16:50:45;10.40;99.90
981;DHT22;479;53.514;9.994;2023-03-21T16:53:14;10.40;99.90
981;DHT22;479;53.514;9.994;2023-03-21T16:55:41;10.30;99.90
981;DHT22;479;53.514;9.994;2023-03-21T16:58:11;10.40;99.90
981;DHT22;479;53.514;9.994;2023-03-21T17:00:40;10.40;99.90
981;DHT22;479;53.514;9.994;2023-03-21T17:03:12;10.40;99.90
981;DHT22;479;53.514;9.994;2023-03-21T17:05:40;10.40;99.90
981;DHT22;479;53.514;9.994;2023-03-21T17:08:11;10.40;99.90
981;DHT22;479;53.514;9.994;2023-03-21T17:10:40;10.40;99.90
981;DHT22;479;53.514;9.994;2023-03-21T17:13:07;10.40;99.90
981;DHT22;479;53.514;9.994;2023-03-21T17:15:34;10.40;99.90
981;DHT22;479;53.514;9.994;2023-03-21T17:18:00;10.30;99.90
981;DHT22;479;53.514;9.994;2023-03-21T17:20:29;10.40;99.90
981;DHT22;479;53.514;9.994;2023-03-21T17:22:57;10.40;99.90
981;DHT22;479;53.514;9.994;2023-03-21T17:25:24;10.40;99.90